sensor_id;sensor_type;location;lat;lon;timestamp;pressure;altitude;pressure_sealevel;temperature;humidity
65997;BME280;52765;52.258;21.052;2022-07-29T00:01:22;101155.16;;;16.34;93.40
65997;BME280;52765;52.258;21.052;2022-07-29T00:03:48;101143.66;;;16.16;94.14
65997;BME280;52765;52.258;21.052;2022-07-29T00:06:14;101144.03;;;16.04;95.07
65997;BME280;52765;52.258;21.052;2022-07-29T00:08:39;101171.38;;;16.11;95.96
65997;BME280;52765;52.258;21.052;2022-07-29T00:11:05;101157.63;;;15.96;95.92
65997;BME280;52765;52.258;21.052;2022-07-29T00:13:31;101153.38;;;15.94;96.19
65997;BME280;52765;52.258;21.052;2022-07-29T00:15:56;101165.94;;;16.03;96.55
65997;BME280;52765;52.258;21.052;2022-07-29T00:18:22;101177.16;;;16.08;96.25
65997;BME280;52765;52.258;21.052;2022-07-29T00:20:47;101159.84;;;16.01;96.37
65997;BME280;52765;52.258;21.052;2022-07-29T00:23:13;101170.53;;;16.11;96.49
65997;BME280;52765;52.258;21.052;2022-07-29T00:25:38;101167.13;;;16.08;96.44
65997;BME280;52765;52.258;21.052;2022-07-29T00:28:04;101178.66;;;16.19;96.28
65997;BME280;52765;52.258;21.052;2022-07-29T00:30:29;101158.13;;;16.08;96.68
65997;BME280;52765;52.258;21.052;2022-07-29T00:32:55;101175.09;;;16.10;97.32
65997;BME280;52765;52.258;21.052;2022-07-29T00:35:20;101165.59;;;16.06;97.76
65997;BME280;52765;52.258;21.052;2022-07-29T00:38:05;101148.81;;;15.94;97.39
65997;BME280;52765;52.258;21.052;2022-07-29T00:40:30;101174.25;;;16.09;97.72
65997;BME280;52765;52.258;21.052;2022-07-29T00:42:56;101151.38;;;15.87;97.69
65997;BME280;52765;52.258;21.052;2022-07-29T00:45:21;101143.06;;;15.81;98.36
65997;BME280;52765;52.258;21.052;2022-07-29T00:47:47;101147.13;;;15.77;98.79
65997;BME280;52765;52.258;21.052;2022-07-29T00:50:13;101149.16;;;15.75;99.48
65997;BME280;52765;52.258;21.052;2022-07-29T00:52:40;101157.00;;;15.78;99.79
65997;BME280;52765;52.258;21.052;2022-07-29T00:55:12;101167.50;;;15.81;99.84
65997;BME280;52765;52.258;21.052;2022-07-29T00:57:39;101141.00;;;15.66;100.00
65997;BME280;52765;52.258;21.052;2022-07-29T01:00:07;101157.13;;;15.68;100.00
65997;BME280;52765;52.258;21.052;2022-07-29T01:02:34;101148.81;;;15.61;100.00
65997;BME280;52765;52.258;21.052;2022-07-29T01:05:00;101155.25;;;15.68;100.00
65997;BME280;52765;52.258;21.052;2022-07-29T01:07:26;101175.34;;;15.76;100.00
65997;BME280;52765;52.258;21.052;2022-07-29T01:09:53;101166.44;;;15.73;100.00
65997;BME280;52765;52.258;21.052;2022-07-29T01:12:25;101160.34;;;15.71;100.00
65997;BME280;52765;52.258;21.052;2022-07-29T01:14:53;101157.28;;;15.66;100.00
65997;BME280;52765;52.258;21.052;2022-07-29T01:25:46;101166.13;;;15.68;100.00
65997;BME280;52765;52.258;21.052;2022-07-29T01:31:18;101173.59;;;15.66;100.00
65997;BME280;52765;52.258;21.052;2022-07-29T01:33:46;101146.78;;;15.47;100.00
65997;BME280;52765;52.258;21.052;2022-07-29T01:36:31;101171.91;;;15.57;100.00
65997;BME280;52765;52.258;21.052;2022-07-29T01:39:05;101167.81;;;15.53;100.00
65997;BME280;52765;52.258;21.052;2022-07-29T01:41:33;101162.22;;;15.54;100.00
65997;BME280;52765;52.258;21.052;2022-07-29T01:44:18;101141.72;;;15.44;100.00
65997;BME280;52765;52.258;21.052;2022-07-29T01:46:54;101156.47;;;15.49;100.00
65997;BME280;52765;52.258;21.052;2022-07-29T01:49:27;101157.13;;;15.51;100.00
65997;BME280;52765;52.258;21.052;2022-07-29T01:51:58;101169.38;;;15.56;100.00
65997;BME280;52765;52.258;21.052;2022-07-29T01:54:30;101178.00;;;15.51;100.00
65997;BME280;52765;52.258;21.052;2022-07-29T01:56:58;101161.22;;;15.47;100.00
65997;BME280;52765;52.258;21.052;2022-07-29T01:59:25;101171.91;;;15.49;100.00
65997;BME280;52765;52.258;21.052;2022-07-29T02:01:53;101171.75;;;15.42;100.00
65997;BME280;52765;52.258;21.052;2022-07-29T02:04:20;101158.81;;;15.28;100.00
65997;BME280;52765;52.258;21.052;2022-07-29T02:06:49;101152.38;;;15.21;100.00
65997;BME280;52765;52.258;21.052;2022-07-29T02:09:17;101154.75;;;15.15;100.00
65997;BME280;52765;52.258;21.052;2022-07-29T02:11:48;101178.00;;;15.34;100.00
65997;BME280;52765;52.258;21.052;2022-07-29T02:14:18;101160.84;;;15.17;100.00
65997;BME280;52765;52.258;21.052;2022-07-29T02:16:45;101157.09;;;15.10;100.00
65997;BME280;52765;52.258;21.052;2022-07-29T02:19:13;101167.09;;;15.10;100.00
65997;BME280;52765;52.258;21.052;2022-07-29T02:21:40;101150.28;;;14.98;100.00
65997;BME280;52765;52.258;21.052;2022-07-29T02:24:06;101155.38;;;14.93;100.00
65997;BME280;52765;52.258;21.052;2022-07-29T02:26:33;101159.41;;;14.89;100.00
65997;BME280;52765;52.258;21.052;2022-07-29T02:28:59;101137.34;;;14.75;100.00
65997;BME280;52765;52.258;21.052;2022-07-29T02:31:31;101159.41;;;14.89;100.00
65997;BME280;52765;52.258;21.052;2022-07-29T02:33:58;101152.13;;;14.89;100.00
65997;BME280;52765;52.258;21.052;2022-07-29T02:36:25;101154.53;;;14.92;100.00
65997;BME280;52765;52.258;21.052;2022-07-29T02:38:52;101153.16;;;14.96;100.00
65997;BME280;52765;52.258;21.052;2022-07-29T02:41:42;101172.84;;;15.07;100.00
65997;BME280;52765;52.258;21.052;2022-07-29T02:44:11;101143.84;;;14.91;100.00
65997;BME280;52765;52.258;21.052;2022-07-29T02:46:45;101158.06;;;14.93;100.00
65997;BME280;52765;52.258;21.052;2022-07-29T02:51:46;101160.59;;;14.86;100.00
65997;BME280;52765;52.258;21.052;2022-07-29T02:54:21;101165.03;;;14.87;100.00
65997;BME280;52765;52.258;21.052;2022-07-29T02:56:48;101148.03;;;14.77;100.00
65997;BME280;52765;52.258;21.052;2022-07-29T02:59:16;101162.81;;;14.83;100.00
65997;BME280;52765;52.258;21.052;2022-07-29T03:01:45;101154.66;;;14.83;100.00
65997;BME280;52765;52.258;21.052;2022-07-29T03:04:12;101159.75;;;14.86;100.00
65997;BME280;52765;52.258;21.052;2022-07-29T03:09:50;101153.47;;;14.85;100.00
65997;BME280;52765;52.258;21.052;2022-07-29T03:12:17;101179.47;;;14.96;100.00
65997;BME280;52765;52.258;21.052;2022-07-29T03:14:43;101162.13;;;14.80;100.00
65997;BME280;52765;52.258;21.052;2022-07-29T03:17:09;101170.06;;;14.82;100.00
65997;BME280;52765;52.258;21.052;2022-07-29T03:19:35;101144.28;;;14.70;100.00
65997;BME280;52765;52.258;21.052;2022-07-29T03:22:01;101184.69;;;14.89;100.00
65997;BME280;52765;52.258;21.052;2022-07-29T03:24:35;101173.81;;;14.81;100.00
65997;BME280;52765;52.258;21.052;2022-07-29T03:27:02;101191.59;;;14.84;100.00
65997;BME280;52765;52.258;21.052;2022-07-29T03:29:28;101185.00;;;14.78;100.00
65997;BME280;52765;52.258;21.052;2022-07-29T03:31:54;101176.66;;;14.71;100.00
65997;BME280;52765;52.258;21.052;2022-07-29T03:34:20;101199.91;;;14.82;100.00
65997;BME280;52765;52.258;21.052;2022-07-29T03:36:46;101162.78;;;14.74;100.00
65997;BME280;52765;52.258;21.052;2022-07-29T03:39:17;101176.38;;;14.83;100.00
65997;BME280;52765;52.258;21.052;2022-07-29T03:41:45;101151.56;;;14.69;100.00
65997;BME280;52765;52.258;21.052;2022-07-29T03:44:14;101154.81;;;14.73;100.00
65997;BME280;52765;52.258;21.052;2022-07-29T03:46:44;101175.84;;;14.79;100.00
65997;BME280;52765;52.258;21.052;2022-07-29T03:49:10;101167.53;;;14.72;100.00
65997;BME280;52765;52.258;21.052;2022-07-29T03:51:37;101176.38;;;14.83;100.00
65997;BME280;52765;52.258;21.052;2022-07-29T03:54:04;101184.50;;;14.83;100.00
65997;BME280;52765;52.258;21.052;2022-07-29T03:56:32;101152.22;;;14.63;100.00
65997;BME280;52765;52.258;21.052;2022-07-29T03:59:01;101172.09;;;14.80;100.00
65997;BME280;52765;52.258;21.052;2022-07-29T04:01:28;101172.25;;;14.70;100.00
65997;BME280;52765;52.258;21.052;2022-07-29T04:03:55;101173.47;;;14.76;100.00
65997;BME280;52765;52.258;21.052;2022-07-29T04:06:21;101185.00;;;14.86;100.00
65997;BME280;52765;52.258;21.052;2022-07-29T04:08:48;101155.97;;;14.70;100.00
65997;BME280;52765;52.258;21.052;2022-07-29T04:11:16;101167.56;;;14.80;100.00
65997;BME280;52765;52.258;21.052;2022-07-29T04:13:41;101189.09;;;14.90;100.00
65997;BME280;52765;52.258;21.052;2022-07-29T04:16:07;101180.06;;;14.82;100.00
65997;BME280;52765;52.258;21.052;2022-07-29T04:18:32;101181.28;;;14.79;100.00
65997;BME280;52765;52.258;21.052;2022-07-29T04:20:58;101163.44;;;14.76;100.00
65997;BME280;52765;52.258;21.052;2022-07-29T04:23:26;101181.31;;;14.87;100.00
65997;BME280;52765;52.258;21.052;2022-07-29T04:25:52;101182.13;;;14.79;100.00
65997;BME280;52765;52.258;21.052;2022-07-29T04:28:18;101157.69;;;14.71;100.00
65997;BME280;52765;52.258;21.052;2022-07-29T04:30:43;101195.88;;;14.86;100.00
65997;BME280;52765;52.258;21.052;2022-07-29T04:33:10;101193.81;;;14.80;100.00
65997;BME280;52765;52.258;21.052;2022-07-29T04:35:37;101182.25;;;14.70;100.00
65997;BME280;52765;52.258;21.052;2022-07-29T04:38:04;101166.16;;;14.76;100.00
65997;BME280;52765;52.258;21.052;2022-07-29T04:40:30;101163.44;;;14.76;100.00
65997;BME280;52765;52.258;21.052;2022-07-29T04:42:58;101182.66;;;14.91;100.00
65997;BME280;52765;52.258;21.052;2022-07-29T04:45:25;101180.97;;;14.98;100.00
65997;BME280;52765;52.258;21.052;2022-07-29T04:47:50;101185.41;;;14.99;100.00
65997;BME280;52765;52.258;21.052;2022-07-29T04:50:16;101179.63;;;15.03;100.00
65997;BME280;52765;52.258;21.052;2022-07-29T04:52:41;101192.75;;;15.15;100.00
65997;BME280;52765;52.258;21.052;2022-07-29T04:55:07;101178.81;;;15.18;100.00
65997;BME280;52765;52.258;21.052;2022-07-29T04:57:33;101172.72;;;15.25;100.00
65997;BME280;52765;52.258;21.052;2022-07-29T05:00:00;101175.09;;;15.28;100.00
65997;BME280;52765;52.258;21.052;2022-07-29T05:02:26;101180.88;;;15.33;100.00
65997;BME280;52765;52.258;21.052;2022-07-29T05:04:51;101188.19;;;15.49;100.00
65997;BME280;52765;52.258;21.052;2022-07-29T05:07:17;101205.00;;;15.61;100.00
65997;BME280;52765;52.258;21.052;2022-07-29T05:09:45;101180.91;;;15.66;100.00
65997;BME280;52765;52.258;21.052;2022-07-29T05:12:11;101185.84;;;15.70;100.00
65997;BME280;52765;52.258;21.052;2022-07-29T05:14:37;101173.25;;;15.61;100.00
65997;BME280;52765;52.258;21.052;2022-07-29T05:17:02;101204.84;;;15.87;100.00
65997;BME280;52765;52.258;21.052;2022-07-29T05:19:28;101189.75;;;15.76;100.00
65997;BME280;52765;52.258;21.052;2022-07-29T05:21:54;101194.34;;;15.84;100.00
65997;BME280;52765;52.258;21.052;2022-07-29T05:24:19;101196.19;;;16.00;100.00
65997;BME280;52765;52.258;21.052;2022-07-29T05:26:45;101201.09;;;16.13;100.00
65997;BME280;52765;52.258;21.052;2022-07-29T05:29:10;101202.09;;;16.20;100.00
65997;BME280;52765;52.258;21.052;2022-07-29T05:31:36;101215.13;;;16.41;100.00
65997;BME280;52765;52.258;21.052;2022-07-29T05:34:01;101204.94;;;16.43;100.00
65997;BME280;52765;52.258;21.052;2022-07-29T05:36:27;101219.81;;;16.63;100.00
65997;BME280;52765;52.258;21.052;2022-07-29T05:38:53;101208.09;;;16.63;100.00
65997;BME280;52765;52.258;21.052;2022-07-29T05:41:19;101205.19;;;16.64;100.00
65997;BME280;52765;52.258;21.052;2022-07-29T05:43:47;101205.34;;;16.71;100.00
65997;BME280;52765;52.258;21.052;2022-07-29T05:46:13;101193.75;;;16.77;100.00
65997;BME280;52765;52.258;21.052;2022-07-29T05:48:39;101211.06;;;16.93;100.00
65997;BME280;52765;52.258;21.052;2022-07-29T05:51:05;101201.56;;;16.89;100.00
65997;BME280;52765;52.258;21.052;2022-07-29T05:53:31;101183.88;;;16.85;100.00
65997;BME280;52765;52.258;21.052;2022-07-29T05:55:56;101174.69;;;16.86;100.00
65997;BME280;52765;52.258;21.052;2022-07-29T05:58:22;101192.63;;;17.03;100.00
65997;BME280;52765;52.258;21.052;2022-07-29T06:00:48;101187.44;;;17.16;100.00
65997;BME280;52765;52.258;21.052;2022-07-29T06:03:14;101164.03;;;17.07;100.00
65997;BME280;52765;52.258;21.052;2022-07-29T06:05:39;101165.34;;;17.11;100.00
65997;BME280;52765;52.258;21.052;2022-07-29T06:08:06;101178.56;;;17.23;99.81
65997;BME280;52765;52.258;21.052;2022-07-29T06:10:32;101186.63;;;17.39;99.42
65997;BME280;52765;52.258;21.052;2022-07-29T06:12:58;101180.13;;;17.40;98.47
65997;BME280;52765;52.258;21.052;2022-07-29T06:15:23;101184.13;;;17.52;98.33
65997;BME280;52765;52.258;21.052;2022-07-29T06:17:49;101163.59;;;17.42;97.90
65997;BME280;52765;52.258;21.052;2022-07-29T06:20:14;101167.59;;;17.54;97.11
65997;BME280;52765;52.258;21.052;2022-07-29T06:22:40;101172.63;;;17.65;96.38
65997;BME280;52765;52.258;21.052;2022-07-29T06:25:06;101170.66;;;17.74;95.48
65997;BME280;52765;52.258;21.052;2022-07-29T06:27:34;101157.03;;;17.74;94.95
65997;BME280;52765;52.258;21.052;2022-07-29T06:30:00;101177.91;;;17.82;95.21
65997;BME280;52765;52.258;21.052;2022-07-29T06:32:27;101179.75;;;17.89;94.86
65997;BME280;52765;52.258;21.052;2022-07-29T06:34:52;101172.50;;;17.97;94.56
65997;BME280;52765;52.258;21.052;2022-07-29T06:37:18;101159.56;;;17.99;93.95
65997;BME280;52765;52.258;21.052;2022-07-29T06:39:43;101181.38;;;18.28;92.71
65997;BME280;52765;52.258;21.052;2022-07-29T06:42:09;101191.19;;;18.38;91.95
65997;BME280;52765;52.258;21.052;2022-07-29T06:44:35;101183.00;;;18.38;91.56
65997;BME280;52765;52.258;21.052;2022-07-29T06:47:01;101161.19;;;18.38;91.69
65997;BME280;52765;52.258;21.052;2022-07-29T06:49:26;101183.09;;;18.59;91.44
65997;BME280;52765;52.258;21.052;2022-07-29T06:51:53;101184.69;;;18.54;91.65
65997;BME280;52765;52.258;21.052;2022-07-29T06:54:19;101181.69;;;18.48;91.89
65997;BME280;52765;52.258;21.052;2022-07-29T06:56:45;101169.53;;;18.51;91.40
65997;BME280;52765;52.258;21.052;2022-07-29T06:59:12;101167.34;;;18.61;91.01
65997;BME280;52765;52.258;21.052;2022-07-29T07:01:42;101177.78;;;18.73;90.38
65997;BME280;52765;52.258;21.052;2022-07-29T07:04:15;101168.59;;;18.74;89.87
65997;BME280;52765;52.258;21.052;2022-07-29T07:06:41;101159.25;;;18.68;89.29
65997;BME280;52765;52.258;21.052;2022-07-29T07:09:07;101166.59;;;18.82;89.37
65997;BME280;52765;52.258;21.052;2022-07-29T07:11:33;101181.44;;;18.95;89.07
65997;BME280;52765;52.258;21.052;2022-07-29T07:13:59;101158.19;;;18.99;88.79
65997;BME280;52765;52.258;21.052;2022-07-29T07:16:24;101172.00;;;19.12;87.94
65997;BME280;52765;52.258;21.052;2022-07-29T07:18:50;101185.22;;;19.30;87.04
65997;BME280;52765;52.258;21.052;2022-07-29T07:21:16;101180.78;;;19.29;86.57
65997;BME280;52765;52.258;21.052;2022-07-29T07:23:41;101165.22;;;19.30;86.73
65997;BME280;52765;52.258;21.052;2022-07-29T07:26:10;101155.44;;;19.35;86.47
65997;BME280;52765;52.258;21.052;2022-07-29T07:28:36;101171.81;;;19.57;86.00
65997;BME280;52765;52.258;21.052;2022-07-29T07:31:01;101178.63;;;19.68;85.29
65997;BME280;52765;52.258;21.052;2022-07-29T07:33:27;101182.28;;;19.75;85.03
65997;BME280;52765;52.258;21.052;2022-07-29T07:35:55;101183.00;;;19.84;84.81
65997;BME280;52765;52.258;21.052;2022-07-29T07:38:21;101187.47;;;19.91;84.44
65997;BME280;52765;52.258;21.052;2022-07-29T07:40:46;101157.78;;;19.88;83.98
65997;BME280;52765;52.258;21.052;2022-07-29T07:43:12;101186.19;;;20.15;82.59
65997;BME280;52765;52.258;21.052;2022-07-29T07:45:37;101184.88;;;20.11;81.92
65997;BME280;52765;52.258;21.052;2022-07-29T07:48:04;101171.16;;;20.05;81.27
65997;BME280;52765;52.258;21.052;2022-07-29T07:50:30;101157.44;;;19.98;81.52
65997;BME280;52765;52.258;21.052;2022-07-29T07:52:58;101159.00;;;20.07;81.05
65997;BME280;52765;52.258;21.052;2022-07-29T07:55:24;101172.78;;;20.27;80.89
65997;BME280;52765;52.258;21.052;2022-07-29T07:57:53;101163.75;;;20.27;79.26
65997;BME280;52765;52.258;21.052;2022-07-29T08:00:20;101174.31;;;20.37;77.50
65997;BME280;52765;52.258;21.052;2022-07-29T08:02:46;101194.19;;;20.52;77.50
65997;BME280;52765;52.258;21.052;2022-07-29T08:05:12;101185.63;;;20.62;77.12
65997;BME280;52765;52.258;21.052;2022-07-29T08:07:43;101193.94;;;20.75;75.61
65997;BME280;52765;52.258;21.052;2022-07-29T08:10:10;101186.19;;;20.85;75.41
65997;BME280;52765;52.258;21.052;2022-07-29T08:12:35;101191.47;;;20.94;73.26
65997;BME280;52765;52.258;21.052;2022-07-29T08:15:04;101177.59;;;21.02;72.02
65997;BME280;52765;52.258;21.052;2022-07-29T08:17:32;101190.44;;;21.08;71.19
65997;BME280;52765;52.258;21.052;2022-07-29T08:20:02;101171.94;;;21.10;71.17
65997;BME280;52765;52.258;21.052;2022-07-29T08:22:29;101181.00;;;21.17;70.65
65997;BME280;52765;52.258;21.052;2022-07-29T08:24:55;101180.19;;;21.30;70.19
65997;BME280;52765;52.258;21.052;2022-07-29T08:27:21;101178.78;;;21.48;70.10
65997;BME280;52765;52.258;21.052;2022-07-29T08:29:47;101156.22;;;21.52;69.49
65997;BME280;52765;52.258;21.052;2022-07-29T08:32:16;101163.16;;;21.68;70.74
65997;BME280;52765;52.258;21.052;2022-07-29T08:34:41;101168.66;;;21.75;70.14
65997;BME280;52765;52.258;21.052;2022-07-29T08:37:09;101166.97;;;21.87;70.40
65997;BME280;52765;52.258;21.052;2022-07-29T08:39:34;101156.44;;;21.84;69.91
65997;BME280;52765;52.258;21.052;2022-07-29T08:42:00;101182.38;;;22.08;68.98
65997;BME280;52765;52.258;21.052;2022-07-29T08:44:25;101170.13;;;21.97;67.58
65997;BME280;52765;52.258;21.052;2022-07-29T08:46:52;101171.16;;;22.10;66.58
65997;BME280;52765;52.258;21.052;2022-07-29T08:49:17;101153.25;;;22.01;65.37
65997;BME280;52765;52.258;21.052;2022-07-29T08:51:44;101172.00;;;22.17;65.65
65997;BME280;52765;52.258;21.052;2022-07-29T08:54:10;101174.31;;;22.40;62.93
65997;BME280;52765;52.258;21.052;2022-07-29T08:56:37;101174.25;;;22.60;61.94
65997;BME280;52765;52.258;21.052;2022-07-29T08:59:04;101167.63;;;22.75;59.72
65997;BME280;52765;52.258;21.052;2022-07-29T09:01:33;101162.03;;;22.95;58.68
65997;BME280;52765;52.258;21.052;2022-07-29T09:04:04;101166.84;;;23.06;56.28
65997;BME280;52765;52.258;21.052;2022-07-29T09:06:32;101164.22;;;23.24;54.33
65997;BME280;52765;52.258;21.052;2022-07-29T09:08:59;101150.88;;;23.28;53.62
65997;BME280;52765;52.258;21.052;2022-07-29T09:11:26;101162.47;;;23.37;52.84
65997;BME280;52765;52.258;21.052;2022-07-29T09:13:51;101147.91;;;23.30;53.18
65997;BME280;52765;52.258;21.052;2022-07-29T09:16:17;101144.84;;;23.44;52.34
65997;BME280;52765;52.258;21.052;2022-07-29T09:18:45;101150.13;;;23.71;50.96
65997;BME280;52765;52.258;21.052;2022-07-29T09:21:12;101148.41;;;23.77;50.28
65997;BME280;52765;52.258;21.052;2022-07-29T09:24:00;101158.28;;;23.59;50.55
65997;BME280;52765;52.258;21.052;2022-07-29T09:26:30;101161.47;;;23.56;48.57
65997;BME280;52765;52.258;21.052;2022-07-29T09:28:57;101163.88;;;23.46;48.40
65997;BME280;52765;52.258;21.052;2022-07-29T09:31:34;101152.66;;;23.48;48.04
65997;BME280;52765;52.258;21.052;2022-07-29T09:34:00;101164.03;;;23.76;48.02
65997;BME280;52765;52.258;21.052;2022-07-29T09:36:26;101157.13;;;23.99;48.04
65997;BME280;52765;52.258;21.052;2022-07-29T09:38:59;101145.38;;;24.10;47.70
65997;BME280;52765;52.258;21.052;2022-07-29T09:41:28;101151.94;;;24.28;47.88
65997;BME280;52765;52.258;21.052;2022-07-29T09:43:58;101149.03;;;24.41;47.72
65997;BME280;52765;52.258;21.052;2022-07-29T09:46:24;101144.63;;;24.40;47.04
65997;BME280;52765;52.258;21.052;2022-07-29T09:49:10;101151.03;;;24.52;47.20
65997;BME280;52765;52.258;21.052;2022-07-29T09:51:36;101147.16;;;24.42;46.92
65997;BME280;52765;52.258;21.052;2022-07-29T09:54:25;101146.75;;;24.38;46.62
65997;BME280;52765;52.258;21.052;2022-07-29T09:56:52;101151.94;;;24.28;46.50
65997;BME280;52765;52.258;21.052;2022-07-29T09:59:18;101130.53;;;24.11;47.04
65997;BME280;52765;52.258;21.052;2022-07-29T10:01:45;101147.25;;;24.10;46.84
65997;BME280;52765;52.258;21.052;2022-07-29T10:04:11;101147.56;;;24.01;47.29
65997;BME280;52765;52.258;21.052;2022-07-29T10:06:55;101143.66;;;24.09;47.21
65997;BME280;52765;52.258;21.052;2022-07-29T10:09:23;101128.13;;;23.96;46.69
65997;BME280;52765;52.258;21.052;2022-07-29T10:12:10;101146.72;;;24.01;46.93
65997;BME280;52765;52.258;21.052;2022-07-29T10:14:37;101133.63;;;23.96;47.10
65997;BME280;52765;52.258;21.052;2022-07-29T10:17:04;101125.09;;;24.05;47.13
65997;BME280;52765;52.258;21.052;2022-07-29T10:19:32;101120.81;;;24.27;46.84
65997;BME280;52765;52.258;21.052;2022-07-29T10:21:58;101111.13;;;24.43;46.70
65997;BME280;52765;52.258;21.052;2022-07-29T10:24:26;101129.38;;;24.74;44.55
65997;BME280;52765;52.258;21.052;2022-07-29T10:26:56;101130.59;;;24.79;44.67
65997;BME280;52765;52.258;21.052;2022-07-29T10:29:24;101116.28;;;24.88;45.18
65997;BME280;52765;52.258;21.052;2022-07-29T10:35:06;101120.25;;;25.35;43.22
65997;BME280;52765;52.258;21.052;2022-07-29T10:43:26;101112.53;;;25.67;42.68
65997;BME280;52765;52.258;21.052;2022-07-29T10:45:56;101109.28;;;25.82;42.51
65997;BME280;52765;52.258;21.052;2022-07-29T10:48:23;101104.38;;;25.72;42.47
65997;BME280;52765;52.258;21.052;2022-07-29T10:51:02;101111.06;;;25.76;42.75
65997;BME280;52765;52.258;21.052;2022-07-29T10:53:50;101117.00;;;26.03;42.80
65997;BME280;52765;52.258;21.052;2022-07-29T10:56:30;101101.38;;;26.09;41.98
65997;BME280;52765;52.258;21.052;2022-07-29T11:01:45;101111.56;;;26.20;41.96
65997;BME280;52765;52.258;21.052;2022-07-29T11:04:11;101104.63;;;26.06;42.30
65997;BME280;52765;52.258;21.052;2022-07-29T11:09:30;101095.59;;;25.52;42.85
65997;BME280;52765;52.258;21.052;2022-07-29T11:11:56;101092.72;;;25.46;42.51
65997;BME280;52765;52.258;21.052;2022-07-29T11:17:20;101104.28;;;25.25;42.30
65997;BME280;52765;52.258;21.052;2022-07-29T11:19:45;101093.47;;;25.11;42.16
65997;BME280;52765;52.258;21.052;2022-07-29T11:22:34;101094.91;;;25.14;42.16
65997;BME280;52765;52.258;21.052;2022-07-29T11:25:17;101091.16;;;24.97;42.22
65997;BME280;52765;52.258;21.052;2022-07-29T11:27:46;101097.38;;;25.04;42.55
65997;BME280;52765;52.258;21.052;2022-07-29T11:30:12;101088.25;;;24.91;42.40
65997;BME280;52765;52.258;21.052;2022-07-29T11:32:41;101083.63;;;25.04;42.75
65997;BME280;52765;52.258;21.052;2022-07-29T11:35:12;101087.09;;;25.11;42.47
65997;BME280;52765;52.258;21.052;2022-07-29T11:37:38;101081.94;;;25.15;42.85
65997;BME280;52765;52.258;21.052;2022-07-29T11:45:03;101086.00;;;25.42;41.75
65997;BME280;52765;52.258;21.052;2022-07-29T11:47:32;101083.13;;;25.49;41.12
65997;BME280;52765;52.258;21.052;2022-07-29T11:50:00;101083.72;;;25.51;41.28
65997;BME280;52765;52.258;21.052;2022-07-29T11:52:34;101086.59;;;25.44;41.79
65997;BME280;52765;52.258;21.052;2022-07-29T11:55:04;101077.13;;;25.40;42.35
65997;BME280;52765;52.258;21.052;2022-07-29T11:57:30;101080.00;;;25.69;42.67
65997;BME280;52765;52.258;21.052;2022-07-29T11:59:57;101077.66;;;25.96;41.76
65997;BME280;52765;52.258;21.052;2022-07-29T12:02:23;101057.91;;;26.28;40.47
65997;BME280;52765;52.258;21.052;2022-07-29T12:04:53;101069.13;;;26.79;39.19
65997;BME280;52765;52.258;21.052;2022-07-29T12:07:29;101067.28;;;27.30;38.22
65997;BME280;52765;52.258;21.052;2022-07-29T12:09:55;101059.31;;;27.68;36.93
65997;BME280;52765;52.258;21.052;2022-07-29T12:12:21;101057.50;;;27.96;35.98
65997;BME280;52765;52.258;21.052;2022-07-29T12:14:47;101060.69;;;28.27;36.10
65997;BME280;52765;52.258;21.052;2022-07-29T12:17:30;101045.31;;;28.41;35.78
65997;BME280;52765;52.258;21.052;2022-07-29T12:19:58;101072.84;;;28.70;35.92
65997;BME280;52765;52.258;21.052;2022-07-29T12:22:32;101068.94;;;28.93;35.68
65997;BME280;52765;52.258;21.052;2022-07-29T12:25:04;101068.84;;;28.60;35.47
65997;BME280;52765;52.258;21.052;2022-07-29T12:27:30;101061.59;;;28.82;35.00
65997;BME280;52765;52.258;21.052;2022-07-29T12:29:59;101058.84;;;29.14;34.64
65997;BME280;52765;52.258;21.052;2022-07-29T12:32:37;101060.41;;;29.00;34.26
65997;BME280;52765;52.258;21.052;2022-07-29T12:35:08;101056.13;;;28.59;35.18
65997;BME280;52765;52.258;21.052;2022-07-29T12:37:35;101044.66;;;28.07;35.96
65997;BME280;52765;52.258;21.052;2022-07-29T12:40:06;101042.72;;;27.68;36.56
65997;BME280;52765;52.258;21.052;2022-07-29T12:42:32;101047.91;;;27.47;37.10
65997;BME280;52765;52.258;21.052;2022-07-29T12:44:58;101058.00;;;27.37;37.31
65997;BME280;52765;52.258;21.052;2022-07-29T12:47:25;101044.88;;;26.98;37.63
65997;BME280;52765;52.258;21.052;2022-07-29T12:49:51;101027.84;;;26.61;38.29
65997;BME280;52765;52.258;21.052;2022-07-29T12:52:34;101040.72;;;26.67;38.38
65997;BME280;52765;52.258;21.052;2022-07-29T12:55:00;101033.94;;;26.74;37.96
65997;BME280;52765;52.258;21.052;2022-07-29T12:57:26;101051.00;;;27.00;37.55
65997;BME280;52765;52.258;21.052;2022-07-29T13:02:25;101053.66;;;26.95;37.83
65997;BME280;52765;52.258;21.052;2022-07-29T13:04:58;101027.41;;;26.64;37.85
65997;BME280;52765;52.258;21.052;2022-07-29T13:07:28;101031.84;;;26.65;37.83
65997;BME280;52765;52.258;21.052;2022-07-29T13:10:18;101040.72;;;26.67;38.49
65997;BME280;52765;52.258;21.052;2022-07-29T13:13:07;101041.31;;;26.86;38.50
65997;BME280;52765;52.258;21.052;2022-07-29T13:15:44;101019.13;;;26.81;38.35
65997;BME280;52765;52.258;21.052;2022-07-29T13:18:30;101030.09;;;26.75;37.74
65997;BME280;52765;52.258;21.052;2022-07-29T13:21:11;101033.34;;;26.44;37.88
65997;BME280;52765;52.258;21.052;2022-07-29T13:23:37;101028.13;;;26.18;38.65